createdAt,value
2023-04-23T00:01:25.732Z,23.65
2023-04-23T00:03:54.557Z,17.92
2023-04-23T00:06:22.482Z,16.95
2023-04-23T00:08:52.332Z,16.27
2023-04-23T00:11:20.993Z,15.30
2023-04-23T00:13:49.478Z,16.02
2023-04-23T00:16:17.335Z,15.32
2023-04-23T00:18:44.670Z,15.80
2023-04-23T00:21:12.305Z,13.95
2023-04-23T00:23:39.908Z,12.93
2023-04-23T00:26:07.510Z,12.75
2023-04-23T00:28:34.804Z,11.05
2023-04-23T00:31:02.482Z,11.93
2023-04-23T00:33:29.848Z,11.50
2023-04-23T00:35:57.471Z,12.63
2023-04-23T00:38:26.364Z,13.45
2023-04-23T00:40:53.948Z,12.63
2023-04-23T00:43:21.356Z,14.85
2023-04-23T00:45:49.137Z,19.60
2023-04-23T00:48:16.941Z,16.35
2023-04-23T00:50:44.493Z,15.13
2023-04-23T00:53:11.818Z,14.20
2023-04-23T00:55:39.423Z,15.57
2023-04-23T00:58:06.949Z,12.77
2023-04-23T01:00:42.019Z,18.15
2023-04-23T01:03:10.561Z,13.38
2023-04-23T01:05:38.302Z,12.50
2023-04-23T01:08:05.712Z,10.98
2023-04-23T01:10:33.287Z,10.57
2023-04-23T01:13:00.718Z,10.48
2023-04-23T01:15:28.312Z,10.50
2023-04-23T01:17:57.263Z,10.55
2023-04-23T01:20:25.433Z,9.57
2023-04-23T01:22:53.237Z,11.32
2023-04-23T01:25:20.808Z,18.20
2023-04-23T01:27:48.159Z,15.57
2023-04-23T01:30:15.837Z,14.68
2023-04-23T01:32:43.829Z,14.63
2023-04-23T01:35:13.089Z,16.25
2023-04-23T01:37:40.832Z,22.63
2023-04-23T01:40:08.705Z,12.02
2023-04-23T01:42:35.995Z,11.60
2023-04-23T01:45:03.806Z,12.27
2023-04-23T01:47:31.138Z,10.15
2023-04-23T01:49:58.811Z,9.48
2023-04-23T01:52:26.163Z,9.50
2023-04-23T01:54:54.225Z,12.57
2023-04-23T01:57:24.243Z,17.27
2023-04-23T01:59:51.872Z,17.98
2023-04-23T02:02:19.837Z,17.27
2023-04-23T02:04:48.804Z,15.07
2023-04-23T02:07:16.283Z,13.38
2023-04-23T02:09:43.856Z,11.25
2023-04-23T02:12:11.163Z,11.90
2023-04-23T02:14:38.791Z,10.30
2023-04-23T02:17:06.370Z,11.32
2023-04-23T02:19:35.749Z,10.10
2023-04-23T02:22:03.251Z,8.82
2023-04-23T02:24:30.841Z,7.30
2023-04-23T02:26:58.891Z,7.18
2023-04-23T02:29:26.453Z,7.03
2023-04-23T02:31:53.831Z,8.27
2023-04-23T02:34:21.434Z,8.10
2023-04-23T02:36:48.752Z,10.88
2023-04-23T02:39:16.387Z,10.23
2023-04-23T02:41:43.687Z,9.93
2023-04-23T02:44:11.276Z,10.57
2023-04-23T02:46:38.966Z,8.35
2023-04-23T02:49:06.810Z,8.20
2023-04-23T02:51:34.107Z,12.77
2023-04-23T02:54:03.949Z,13.77
2023-04-23T02:56:31.221Z,12.07
2023-04-23T02:58:58.811Z,11.00
2023-04-23T03:01:26.277Z,10.73
2023-04-23T03:03:54.777Z,11.25
2023-04-23T03:06:22.267Z,10.50
2023-04-23T03:08:49.905Z,11.07
2023-04-23T03:11:17.271Z,9.98
2023-04-23T03:13:44.886Z,9.32
2023-04-23T03:16:12.243Z,9.02
2023-04-23T03:18:39.945Z,9.52
2023-04-23T03:21:07.266Z,8.43
2023-04-23T03:23:34.840Z,6.90
2023-04-23T03:26:02.113Z,7.97
2023-04-23T03:28:29.737Z,8.45
2023-04-23T03:30:57.015Z,7.10
2023-04-23T03:33:24.629Z,7.28
2023-04-23T03:35:51.881Z,9.30
2023-04-23T03:38:19.438Z,10.68
2023-04-23T03:40:46.694Z,12.10
2023-04-23T03:43:14.285Z,11.40
2023-04-23T03:45:41.602Z,11.38
2023-04-23T03:48:09.194Z,10.98
2023-04-23T03:50:40.377Z,10.27
2023-04-23T03:53:09.912Z,11.00
2023-04-23T03:55:37.233Z,10.77
2023-04-23T03:58:05.337Z,16.38
2023-04-23T04:00:32.627Z,17.60
2023-04-23T04:03:02.123Z,14.75
2023-04-23T04:05:29.844Z,15.50
2023-04-23T04:07:57.527Z,13.48
2023-04-23T04:10:24.834Z,14.80
2023-04-23T04:12:52.460Z,13.75
2023-04-23T04:15:20.931Z,13.30
2023-04-23T04:17:48.679Z,13.25
2023-04-23T04:20:17.179Z,10.65
2023-04-23T04:22:46.730Z,10.93
2023-04-23T04:25:14.124Z,10.25
2023-04-23T04:27:41.692Z,11.73
2023-04-23T04:30:09.774Z,13.18
2023-04-23T04:32:38.791Z,11.40
2023-04-23T04:35:06.508Z,9.40
2023-04-23T04:37:34.211Z,10.25
2023-04-23T04:40:02.614Z,10.85
2023-04-23T04:42:30.327Z,10.95
2023-04-23T04:44:59.492Z,11.43
2023-04-23T04:47:27.276Z,12.60
2023-04-23T04:49:57.403Z,12.55
2023-04-23T04:52:25.170Z,13.18
2023-04-23T04:54:52.463Z,12.75
2023-04-23T04:57:22.797Z,13.38
2023-04-23T04:59:50.934Z,14.60
2023-04-23T05:02:18.673Z,14.77
2023-04-23T05:04:46.048Z,12.07
2023-04-23T05:07:13.617Z,14.23
2023-04-23T05:09:43.003Z,12.60
2023-04-23T05:12:12.480Z,11.32
2023-04-23T05:14:40.237Z,12.45
2023-04-23T05:17:08.074Z,11.13
2023-04-23T05:19:35.359Z,10.85
2023-04-23T05:22:03.667Z,11.45
2023-04-23T05:24:31.037Z,12.27
2023-04-23T05:26:58.589Z,11.63
2023-04-23T05:29:25.997Z,11.48
2023-04-23T05:31:54.163Z,11.45
2023-04-23T05:34:21.574Z,11.50
2023-04-23T05:36:49.122Z,11.23
2023-04-23T05:39:16.469Z,11.63
2023-04-23T05:41:44.090Z,9.63
2023-04-23T05:44:11.375Z,10.63
2023-04-23T05:46:38.921Z,9.50
2023-04-23T05:49:06.528Z,9.32
2023-04-23T05:51:34.156Z,8.65
2023-04-23T05:54:01.411Z,7.28
2023-04-23T05:56:29.059Z,7.07
2023-04-23T05:58:56.405Z,7.43
2023-04-23T06:01:24.581Z,7.53
2023-04-23T06:03:52.357Z,7.40
2023-04-23T06:06:20.292Z,8.80
2023-04-23T06:08:47.640Z,9.07
2023-04-23T06:11:15.233Z,9.05
2023-04-23T06:13:43.915Z,9.00
2023-04-23T06:16:11.757Z,8.75
2023-04-23T06:18:39.263Z,9.25
2023-04-23T06:21:07.377Z,8.57
2023-04-23T06:23:35.384Z,8.63
2023-04-23T06:26:04.324Z,8.55
2023-04-23T06:28:31.600Z,8.52
2023-04-23T06:30:59.377Z,8.13
2023-04-23T06:33:26.714Z,7.90
2023-04-23T06:35:54.514Z,8.07
2023-04-23T06:38:23.006Z,8.13
2023-04-23T06:40:50.934Z,8.73
2023-04-23T06:43:18.303Z,7.55
2023-04-23T06:45:46.142Z,8.30
2023-04-23T06:48:13.515Z,7.68
2023-04-23T06:50:41.208Z,7.38
2023-04-23T06:53:08.698Z,6.90
2023-04-23T06:55:36.361Z,6.03
2023-04-23T06:58:03.717Z,6.93
2023-04-23T07:00:31.430Z,6.47
2023-04-23T07:02:58.828Z,6.45
2023-04-23T07:05:26.457Z,6.53
2023-04-23T07:07:53.758Z,7.30
2023-04-23T07:10:21.393Z,6.88
2023-04-23T07:12:48.838Z,6.85
2023-04-23T07:15:16.425Z,6.18
2023-04-23T07:17:43.804Z,6.28
2023-04-23T07:20:12.102Z,6.63
2023-04-23T07:22:39.397Z,6.82
2023-04-23T07:25:08.806Z,6.70
2023-04-23T07:27:36.358Z,6.43
2023-04-23T07:30:05.019Z,6.68
2023-04-23T07:32:32.383Z,6.80
2023-04-23T07:34:59.993Z,7.20
2023-04-23T07:37:27.341Z,7.40
2023-04-23T07:39:54.899Z,6.63
2023-04-23T07:42:22.238Z,6.95
2023-04-23T07:44:49.817Z,6.80
2023-04-23T07:47:17.214Z,7.82
2023-04-23T07:49:44.871Z,7.97
2023-04-23T07:52:12.247Z,6.97
2023-04-23T07:54:39.941Z,7.85
2023-04-23T07:57:07.254Z,7.30
2023-04-23T07:59:34.917Z,7.68
2023-04-23T08:02:02.173Z,7.85
2023-04-23T08:04:29.887Z,7.82
2023-04-23T08:06:57.330Z,7.60
2023-04-23T08:09:25.105Z,8.65
2023-04-23T08:11:52.546Z,7.25
2023-04-23T08:14:20.200Z,7.38
2023-04-23T08:16:47.546Z,7.15
2023-04-23T08:19:15.216Z,7.47
2023-04-23T08:21:42.583Z,7.95
2023-04-23T08:24:10.243Z,7.70
2023-04-23T08:26:37.556Z,7.35
2023-04-23T08:29:05.239Z,7.15
2023-04-23T08:31:37.573Z,7.85
2023-04-23T08:34:05.206Z,7.93
2023-04-23T08:36:32.708Z,7.40
2023-04-23T08:39:00.853Z,6.95
2023-04-23T08:41:31.357Z,7.25
2023-04-23T08:44:12.764Z,7.28
2023-04-23T08:46:43.141Z,6.68
2023-04-23T08:49:18.044Z,6.80
2023-04-23T08:51:48.184Z,7.10
2023-04-23T08:54:16.564Z,6.75
2023-04-23T08:56:44.876Z,11.13
2023-04-23T08:59:12.624Z,7.85
2023-04-23T09:01:40.129Z,6.18
2023-04-23T09:04:08.604Z,6.93
2023-04-23T09:06:35.926Z,6.90
2023-04-23T09:09:04.781Z,6.47
2023-04-23T09:11:32.243Z,6.47
2023-04-23T09:13:59.864Z,6.88
2023-04-23T09:16:27.539Z,6.68
2023-04-23T09:18:55.199Z,6.18
2023-04-23T09:21:22.556Z,7.68
2023-04-23T09:23:53.053Z,6.53
2023-04-23T09:26:22.133Z,5.90
2023-04-23T09:28:51.252Z,5.78
2023-04-23T09:31:24.976Z,6.15
2023-04-23T09:33:56.382Z,6.35
2023-04-23T09:36:24.223Z,6.10
2023-04-23T09:38:56.476Z,6.13
2023-04-23T09:41:25.357Z,5.18
2023-04-23T09:43:56.463Z,6.00
2023-04-23T09:46:37.079Z,5.78
2023-04-23T09:49:07.745Z,5.55
2023-04-23T09:51:39.383Z,5.22
2023-04-23T09:54:13.680Z,5.50
2023-04-23T09:56:44.214Z,4.80
2023-04-23T09:59:46.277Z,5.63
2023-04-23T10:02:13.085Z,5.05
2023-04-23T10:04:41.902Z,5.00
2023-04-23T10:07:19.506Z,6.18
2023-04-23T10:09:48.539Z,4.55
2023-04-23T10:14:49.297Z,4.50
2023-04-23T10:17:17.327Z,4.10
2023-04-23T10:19:45.450Z,4.45
2023-04-23T10:24:49.187Z,4.53
2023-04-23T10:27:30.654Z,4.90
2023-04-23T10:30:06.533Z,4.35
2023-04-23T10:32:34.667Z,4.18
2023-04-23T10:35:02.600Z,4.45
2023-04-23T10:37:30.277Z,3.90
2023-04-23T10:40:02.035Z,4.70
2023-04-23T10:42:29.912Z,4.17
2023-04-23T10:45:07.132Z,3.75
2023-04-23T10:47:37.752Z,4.28
2023-04-23T10:50:22.776Z,4.20
2023-04-23T10:52:54.175Z,4.28
2023-04-23T10:55:29.255Z,3.97
2023-04-23T10:58:00.849Z,4.63
2023-04-23T11:00:31.203Z,4.70
2023-04-23T11:02:58.770Z,4.55
2023-04-23T11:05:29.129Z,3.92
2023-04-23T11:08:18.917Z,4.70
2023-04-23T11:10:57.926Z,4.13
2023-04-23T11:13:26.160Z,4.13
2023-04-23T11:16:18.331Z,3.97
2023-04-23T11:19:03.394Z,4.13
2023-04-23T11:21:49.960Z,3.83
2023-04-23T11:24:17.272Z,3.58
2023-04-23T11:26:45.423Z,3.85
2023-04-23T11:29:15.547Z,3.72
2023-04-23T11:31:58.403Z,3.80
2023-04-23T11:34:29.733Z,3.53
2023-04-23T11:36:59.216Z,2.95
2023-04-23T11:39:27.314Z,3.72
2023-04-23T11:41:55.213Z,4.07
2023-04-23T11:44:22.633Z,3.15
2023-04-23T11:46:50.734Z,3.17
2023-04-23T11:49:18.301Z,3.33
2023-04-23T11:51:46.709Z,3.33
2023-04-23T11:54:14.691Z,3.20
2023-04-23T11:56:43.549Z,3.22
2023-04-23T11:59:11.009Z,2.85
2023-04-23T12:01:46.324Z,3.10
2023-04-23T12:04:14.633Z,3.30
2023-04-23T12:06:43.108Z,3.75
2023-04-23T12:09:11.954Z,3.40
2023-04-23T12:11:40.578Z,3.63
2023-04-23T12:14:08.810Z,3.40
2023-04-23T12:16:47.001Z,3.20
2023-04-23T12:19:15.464Z,3.17
2023-04-23T12:21:56.297Z,3.05
2023-04-23T12:24:24.533Z,3.33
2023-04-23T12:26:56.340Z,3.17
2023-04-23T12:29:23.886Z,3.53
2023-04-23T12:31:52.464Z,3.92
2023-04-23T12:34:22.880Z,4.38
2023-04-23T12:36:55.049Z,4.25
2023-04-23T12:39:22.304Z,3.45
2023-04-23T12:41:52.000Z,4.22
2023-04-23T12:44:19.429Z,3.20
2023-04-23T12:46:50.318Z,3.50
2023-04-23T12:49:17.754Z,3.53
2023-04-23T12:51:45.659Z,3.30
2023-04-23T12:54:13.090Z,3.72
2023-04-23T12:56:40.693Z,3.60
2023-04-23T12:59:08.302Z,3.90
2023-04-23T13:01:36.066Z,3.38
2023-04-23T13:04:03.525Z,3.13
2023-04-23T13:06:31.205Z,3.40
2023-04-23T13:09:00.614Z,3.67
2023-04-23T13:11:28.345Z,3.47
2023-04-23T13:13:55.655Z,3.78
2023-04-23T13:16:23.552Z,4.80
2023-04-23T13:18:52.294Z,3.53
2023-04-23T13:21:20.048Z,3.28
2023-04-23T13:23:47.357Z,3.17
2023-04-23T13:26:15.105Z,3.42
2023-04-23T13:28:42.561Z,5.38
2023-04-23T13:31:11.970Z,3.70
2023-04-23T13:33:39.452Z,3.40
2023-04-23T13:36:07.365Z,3.47
2023-04-23T13:38:35.081Z,2.90
2023-04-23T13:41:02.974Z,3.85
2023-04-23T13:43:30.273Z,3.63
2023-04-23T13:45:58.045Z,4.45
2023-04-23T13:48:28.714Z,3.53
2023-04-23T13:50:56.621Z,3.50
2023-04-23T13:53:23.896Z,3.63
2023-04-23T13:55:51.460Z,3.33
2023-04-23T13:58:18.843Z,3.40
2023-04-23T14:00:46.450Z,3.33
2023-04-23T14:03:13.986Z,3.60
2023-04-23T14:05:41.908Z,4.20
2023-04-23T14:08:09.422Z,3.80
2023-04-23T14:10:37.041Z,4.00
2023-04-23T14:13:04.791Z,3.35
2023-04-23T14:15:32.409Z,3.90
2023-04-23T14:17:59.916Z,3.30
2023-04-23T14:20:27.581Z,3.15
2023-04-23T14:23:02.574Z,3.47
2023-04-23T14:25:31.936Z,3.13
2023-04-23T14:28:03.447Z,3.20
2023-04-23T14:30:31.517Z,3.33
2023-04-23T14:32:58.842Z,3.60
2023-04-23T14:35:39.558Z,3.30
2023-04-23T14:38:10.496Z,3.20
2023-04-23T14:40:38.098Z,3.55
2023-04-23T14:43:14.956Z,2.97
2023-04-23T14:45:42.925Z,3.20
2023-04-23T14:48:10.509Z,3.33
2023-04-23T14:50:38.513Z,3.17
2023-04-23T14:53:07.792Z,2.97
2023-04-23T14:55:35.651Z,2.88
2023-04-23T14:58:02.975Z,2.85
2023-04-23T15:00:30.694Z,3.45
2023-04-23T15:02:58.184Z,3.60
2023-04-23T15:05:26.004Z,3.08
2023-04-23T15:07:53.337Z,3.13
2023-04-23T15:10:23.256Z,3.00
2023-04-23T15:12:50.824Z,3.45
2023-04-23T15:15:30.585Z,3.10
2023-04-23T15:18:00.990Z,2.80
2023-04-23T15:20:28.595Z,3.30
2023-04-23T15:22:55.925Z,3.00
2023-04-23T15:25:24.471Z,2.90
2023-04-23T15:27:57.703Z,3.05
2023-04-23T15:30:26.158Z,2.88
2023-04-23T15:32:55.398Z,3.35
2023-04-23T15:35:23.490Z,3.28
2023-04-23T15:37:50.913Z,2.75
2023-04-23T15:40:18.876Z,2.97
2023-04-23T15:42:46.346Z,2.97
2023-04-23T15:45:13.971Z,2.90
2023-04-23T15:47:42.191Z,3.30
2023-04-23T15:50:10.840Z,3.03
2023-04-23T15:52:38.467Z,3.00
2023-04-23T15:55:06.630Z,3.35
2023-04-23T15:57:33.945Z,4.10
2023-04-23T16:00:01.637Z,3.83
2023-04-23T16:02:29.167Z,3.38
2023-04-23T16:04:56.883Z,3.65
2023-04-23T16:07:24.257Z,4.75
2023-04-23T16:09:51.852Z,4.70
2023-04-23T16:12:19.153Z,4.10
2023-04-23T16:14:46.851Z,3.45
2023-04-23T16:17:14.194Z,3.00
2023-04-23T16:19:42.090Z,3.40
2023-04-23T16:22:09.752Z,3.53
2023-04-23T16:24:37.311Z,2.92
2023-04-23T16:27:06.635Z,3.20
2023-04-23T16:29:34.258Z,3.78
2023-04-23T16:32:01.551Z,5.13
2023-04-23T16:34:29.098Z,4.35
2023-04-23T16:36:56.534Z,4.03
2023-04-23T16:39:24.837Z,4.13
2023-04-23T16:41:52.138Z,3.97
2023-04-23T16:44:19.775Z,3.15
2023-04-23T16:46:47.143Z,4.50
2023-04-23T16:49:14.761Z,3.83
2023-04-23T16:51:42.041Z,3.03
2023-04-23T16:54:09.851Z,3.65
2023-04-23T16:56:37.371Z,3.20
2023-04-23T16:59:05.389Z,2.53
2023-04-23T17:01:32.702Z,2.10
2023-04-23T17:04:00.384Z,2.42
2023-04-23T17:06:29.993Z,3.20
2023-04-23T17:08:58.867Z,2.63
2023-04-23T17:11:26.840Z,2.10
2023-04-23T17:13:55.430Z,2.60
2023-04-23T17:16:22.858Z,2.92
2023-04-23T17:18:50.499Z,2.78
2023-04-23T17:21:17.825Z,2.53
2023-04-23T17:23:45.967Z,2.63
2023-04-23T17:26:13.646Z,3.92
2023-04-23T17:28:41.391Z,2.78
2023-04-23T17:31:09.135Z,4.47
2023-04-23T17:33:36.831Z,6.40
2023-04-23T17:36:04.804Z,4.60
2023-04-23T17:38:32.619Z,4.30
2023-04-23T17:41:00.016Z,3.45
2023-04-23T17:43:27.715Z,5.25
2023-04-23T17:45:55.203Z,3.83
2023-04-23T17:48:23.427Z,4.18
2023-04-23T17:50:50.827Z,5.97
2023-04-23T17:53:18.783Z,4.82
2023-04-23T17:55:46.293Z,4.80
2023-04-23T17:58:13.888Z,4.93
2023-04-23T18:00:45.390Z,5.30
2023-04-23T18:03:16.787Z,6.07
2023-04-23T18:05:45.085Z,5.47
2023-04-23T18:08:13.052Z,5.75
2023-04-23T18:10:40.495Z,5.55
2023-04-23T18:13:11.431Z,5.55
2023-04-23T18:15:40.930Z,5.03
2023-04-23T18:18:08.648Z,6.20
2023-04-23T18:20:38.927Z,6.13
2023-04-23T18:23:07.270Z,5.82
2023-04-23T18:25:34.624Z,6.82
2023-04-23T18:28:02.449Z,8.70
2023-04-23T18:30:29.929Z,6.00
2023-04-23T18:33:03.602Z,5.55
2023-04-23T18:35:30.980Z,5.63
2023-04-23T18:38:06.710Z,9.77
2023-04-23T18:40:34.899Z,10.18
2023-04-23T18:43:02.631Z,16.17
2023-04-23T18:45:30.026Z,16.90
2023-04-23T18:48:01.714Z,17.70
2023-04-23T18:50:42.935Z,9.68
2023-04-23T18:53:10.804Z,8.15
2023-04-23T18:55:38.099Z,7.07
2023-04-23T18:58:05.783Z,7.22
2023-04-23T19:00:33.177Z,9.18
2023-04-23T19:03:06.458Z,13.45
2023-04-23T19:05:36.649Z,9.05
2023-04-23T19:08:04.485Z,9.40
2023-04-23T19:10:31.753Z,9.25
2023-04-23T19:12:59.327Z,11.70
2023-04-23T19:15:26.643Z,9.65
2023-04-23T19:17:54.218Z,9.15
2023-04-23T19:20:21.544Z,10.65
2023-04-23T19:22:49.125Z,10.27
2023-04-23T19:25:17.435Z,9.32
2023-04-23T19:27:45.063Z,10.25
2023-04-23T19:30:12.485Z,9.77
2023-04-23T19:32:40.093Z,10.45
2023-04-23T19:35:07.703Z,10.48
2023-04-23T19:37:36.910Z,15.45
2023-04-23T19:40:04.921Z,10.80
2023-04-23T19:42:32.582Z,26.23
2023-04-23T19:44:59.850Z,23.52
2023-04-23T19:47:27.536Z,26.75
2023-04-23T19:49:54.833Z,23.60
2023-04-23T19:52:23.512Z,18.77
2023-04-23T19:54:51.069Z,13.23
2023-04-23T19:57:19.304Z,12.75
2023-04-23T19:59:47.045Z,12.05
2023-04-23T20:02:15.394Z,12.18
2023-04-23T20:04:42.966Z,11.90
2023-04-23T20:07:10.708Z,11.13
2023-04-23T20:09:38.248Z,10.32
2023-04-23T20:12:06.144Z,11.55
2023-04-23T20:14:33.443Z,22.25
2023-04-23T20:17:01.184Z,18.17
2023-04-23T20:19:30.689Z,15.60
2023-04-23T20:21:58.254Z,13.35
2023-04-23T20:24:25.676Z,14.73
2023-04-23T20:26:53.269Z,10.57
2023-04-23T20:29:20.559Z,11.10
2023-04-23T20:31:49.606Z,10.43
2023-04-23T20:34:17.461Z,8.63
2023-04-23T20:36:47.155Z,10.30
2023-04-23T20:39:15.367Z,11.73
2023-04-23T20:41:43.273Z,10.82
2023-04-23T20:44:11.984Z,9.85
2023-04-23T20:46:40.141Z,8.85
2023-04-23T20:49:07.444Z,8.63
2023-04-23T20:51:35.144Z,8.57
2023-04-23T20:54:02.873Z,9.20
2023-04-23T20:56:31.313Z,8.65
2023-04-23T20:58:58.918Z,9.73
2023-04-23T21:01:26.929Z,9.60
2023-04-23T21:03:54.753Z,9.52
2023-04-23T21:06:22.837Z,9.13
2023-04-23T21:08:50.094Z,10.45
2023-04-23T21:11:19.114Z,11.30
2023-04-23T21:13:46.840Z,10.13
2023-04-23T21:16:15.201Z,11.13
2023-04-23T21:18:43.718Z,10.32
2023-04-23T21:21:11.449Z,9.57
2023-04-23T21:23:38.764Z,10.38
2023-04-23T21:26:07.459Z,10.32
2023-04-23T21:28:34.732Z,11.07
2023-04-23T21:31:11.374Z,10.80
2023-04-23T21:33:38.734Z,11.45
2023-04-23T21:36:06.409Z,11.02
2023-04-23T21:38:33.683Z,10.55
2023-04-23T21:41:02.199Z,10.88
2023-04-23T21:43:31.401Z,10.80
2023-04-23T21:45:58.997Z,11.02
2023-04-23T21:48:26.282Z,10.88
2023-04-23T21:50:53.853Z,10.43
2023-04-23T21:53:22.501Z,10.80
2023-04-23T21:55:50.312Z,10.48
2023-04-23T21:58:18.133Z,11.02
2023-04-23T22:00:47.776Z,11.15
2023-04-23T22:03:17.780Z,10.60
2023-04-23T22:05:52.533Z,10.32
2023-04-23T22:08:19.901Z,11.38
2023-04-23T22:10:47.475Z,10.48
2023-04-23T22:13:15.026Z,10.27
2023-04-23T22:15:42.823Z,11.57
2023-04-23T22:18:10.210Z,11.45
2023-04-23T22:20:39.087Z,11.48
2023-04-23T22:23:06.429Z,10.18
2023-04-23T22:25:34.061Z,11.15
2023-04-23T22:28:02.669Z,11.05
2023-04-23T22:30:30.608Z,11.95
2023-04-23T22:32:57.968Z,11.20
2023-04-23T22:35:25.931Z,11.77
2023-04-23T22:37:53.283Z,11.05
2023-04-23T22:40:20.945Z,12.18
2023-04-23T22:42:48.227Z,11.93
2023-04-23T22:45:16.124Z,12.15
2023-04-23T22:47:43.599Z,11.10
2023-04-23T22:50:11.744Z,11.68
2023-04-23T22:52:39.029Z,11.85
2023-04-23T22:55:07.403Z,11.15
2023-04-23T22:57:35.265Z,11.18
2023-04-23T23:00:04.643Z,9.98
2023-04-23T23:02:32.011Z,11.85
2023-04-23T23:04:59.971Z,12.07
2023-04-23T23:07:27.277Z,11.02
2023-04-23T23:09:54.871Z,10.68
2023-04-23T23:12:22.401Z,11.65
2023-04-23T23:14:50.272Z,11.45
2023-04-23T23:17:17.602Z,14.13
2023-04-23T23:19:45.383Z,13.02
2023-04-23T23:22:12.855Z,12.70
2023-04-23T23:24:40.501Z,13.82
2023-04-23T23:27:07.797Z,13.35
2023-04-23T23:29:35.436Z,14.35
2023-04-23T23:32:02.781Z,14.63
2023-04-23T23:34:30.721Z,14.15
2023-04-23T23:36:58.020Z,15.27
2023-04-23T23:39:27.306Z,14.85
2023-04-23T23:41:54.622Z,14.38
2023-04-23T23:44:22.450Z,15.40
2023-04-23T23:46:49.818Z,14.65
2023-04-23T23:49:17.406Z,14.38
2023-04-23T23:51:44.805Z,16.38
2023-04-23T23:54:12.395Z,14.88
2023-04-23T23:56:39.703Z,14.25
2023-04-23T23:59:07.252Z,13.77
